Time;durP1;ratioP1;P1;durP2;ratioP2;P2;SDS_P1;SDS_P2;PMS_P1;PMS_P2;Temp;Humidity;BMP_temperature;BMP_pressure;BME280_temperature;BME280_humidity;BME280_pressure;Samples;Min_cycle;Max_cycle;Signal;HPM_P1;HPM_P2
2024/01/19 00:01:21;;;;;;;1.60;1.10;;;;;;;6.88;100.00;97824.60;79419;1300;3011738;-68
2024/01/19 00:03:49;;;;;;;1.00;0.80;;;;;;;6.63;100.00;97826.70;78314;1303;3026440;-71
2024/01/19 00:06:16;;;;;;;0.50;0.50;;;;;;;6.74;100.00;97808.55;79489;1298;3012730;-78
2024/01/19 00:08:42;;;;;;;1.10;0.80;;;;;;;7.11;100.00;97818.38;79371;1304;3011555;-74
2024/01/19 00:11:17;;;;;;;1.70;1.00;;;;;;;7.26;100.00;97808.61;78131;1303;3025179;-68
2024/01/19 00:13:45;;;;;;;2.00;0.80;;;;;;;7.01;100.00;97814.09;78198;1298;3055294;-71
2024/01/19 00:16:12;;;;;;;1.30;1.00;;;;;;;6.94;100.00;97807.08;79421;1304;3019156;-64
2024/01/19 00:18:39;;;;;;;0.90;0.80;;;;;;;6.73;100.00;97806.89;79419;1299;3011479;-70
2024/01/19 00:21:06;;;;;;;0.90;0.70;;;;;;;6.96;100.00;97802.09;78136;1304;3024779;-73
2024/01/19 00:23:33;;;;;;;1.20;0.90;;;;;;;7.05;100.00;97802.64;79420;1300;3013009;-73
2024/01/19 00:26:00;;;;;;;1.90;1.10;;;;;;;6.75;100.00;97801.64;79723;1296;3013636;-69
2024/01/19 00:28:27;;;;;;;1.50;1.00;;;;;;;6.64;100.00;97801.19;78505;1296;3026224;-74
2024/01/19 00:30:54;;;;;;;1.50;0.90;;;;;;;6.55;100.00;97803.23;79589;1301;3013427;-72
2024/01/19 00:33:20;;;;;;;1.20;1.00;;;;;;;6.73;100.00;97795.55;79391;1297;3011940;-71
2024/01/19 00:35:48;;;;;;;1.40;1.00;;;;;;;7.07;100.00;97787.84;80523;1297;3027133;-72
2024/01/19 00:38:15;;;;;;;1.60;0.90;;;;;;;6.95;100.00;97786.29;81890;1297;3013081;-71
2024/01/19 00:40:43;;;;;;;1.70;1.40;;;;;;;6.62;100.00;97796.69;81864;1298;3011313;-77
2024/01/19 00:43:11;;;;;;;1.70;1.10;;;;;;;6.63;100.00;97794.17;80599;1298;3055623;-73
2024/01/19 00:45:37;;;;;;;1.90;1.10;;;;;;;6.88;100.00;97786.42;81883;1297;3012510;-70
2024/01/19 00:48:04;;;;;;;2.00;1.30;;;;;;;7.19;100.00;97771.00;79923;1297;3011653;-65
2024/01/19 00:50:32;;;;;;;2.10;1.20;;;;;;;7.08;100.00;97768.84;78352;1297;3026153;-71
2024/01/19 00:52:58;;;;;;;4.90;1.70;;;;;;;6.85;100.00;97770.31;79317;1298;3012910;-76
2024/01/19 00:55:25;;;;;;;1.70;1.30;;;;;;;6.56;100.00;97778.67;79446;1301;3011505;-70
2024/01/19 00:57:53;;;;;;;1.90;1.40;;;;;;;6.79;100.00;97770.59;78285;1298;3025332;-74
2024/01/19 01:00:20;;;;;;;1.80;1.50;;;;;;;6.87;100.00;97764.77;79605;1298;3013484;-77
2024/01/19 01:02:46;;;;;;;2.50;2.10;;;;;;;6.91;100.00;97761.15;79564;1298;3013109;-67
2024/01/19 01:05:14;;;;;;;2.00;1.70;;;;;;;6.77;100.00;97761.32;78482;1298;3025825;-73
2024/01/19 01:07:41;;;;;;;2.70;1.70;;;;;;;6.55;100.00;97764.84;79451;1298;3014781;-69
2024/01/19 01:10:09;;;;;;;2.90;2.30;;;;;;;6.84;100.00;97767.75;79491;1296;3011633;-72
2024/01/19 01:12:37;;;;;;;3.00;2.00;;;;;;;6.89;100.00;97768.79;78307;1297;3056185;-72
2024/01/19 01:15:04;;;;;;;2.70;2.40;;;;;;;6.86;100.00;97766.27;79543;1298;3012697;-71
2024/01/19 01:17:31;;;;;;;3.80;2.20;;;;;;;6.75;100.00;97764.23;79384;1299;3011561;-73
2024/01/19 01:19:58;;;;;;;3.00;2.00;;;;;;;6.69;100.00;97757.91;78175;1299;3051628;-74
2024/01/19 01:22:26;;;;;;;3.40;2.40;;;;;;;6.92;100.00;97750.81;79345;1301;3013614;-65
2024/01/19 01:24:53;;;;;;;2.20;1.90;;;;;;;7.15;100.00;97743.61;79480;1300;3011547;-68
2024/01/19 01:27:20;;;;;;;3.10;2.60;;;;;;;7.03;100.00;97749.16;78171;1296;3057377;-64
2024/01/19 01:29:47;;;;;;;3.40;2.70;;;;;;;6.86;100.00;97753.16;79454;1298;3020880;-68
2024/01/19 01:32:13;;;;;;;2.60;2.10;;;;;;;6.67;100.00;97756.64;79418;1298;3011993;-72
2024/01/19 01:34:41;;;;;;;3.10;2.40;;;;;;;7.06;100.00;97751.89;78017;1300;3026045;-67
2024/01/19 01:37:08;;;;;;;2.50;2.20;;;;;;;7.19;100.00;97743.31;79639;1300;3013568;-67
2024/01/19 01:39:34;;;;;;;4.80;2.70;;;;;;;7.12;100.00;97738.19;79418;1298;3011650;-72
2024/01/19 01:42:02;;;;;;;2.70;2.40;;;;;;;7.00;100.00;97740.31;78065;1298;3026242;-72
2024/01/19 01:44:29;;;;;;;3.20;2.30;;;;;;;6.68;100.00;97759.38;79306;1298;3019324;-66
2024/01/19 01:46:55;;;;;;;3.60;2.60;;;;;;;6.97;100.00;97758.48;79437;1298;3013090;-67
2024/01/19 01:49:24;;;;;;;3.90;2.60;;;;;;;7.10;100.00;97747.95;78316;1300;3051355;-65
2024/01/19 01:51:51;;;;;;;4.10;3.00;;;;;;;7.09;100.00;97746.96;79357;1299;3013920;-77
2024/01/19 01:54:17;;;;;;;4.30;3.10;;;;;;;6.80;100.00;97754.86;79390;1298;3011809;-68
2024/01/19 01:56:46;;;;;;;4.10;2.90;;;;;;;6.83;100.00;97755.98;78147;1295;3026159;-70
2024/01/19 01:59:13;;;;;;;4.50;3.30;;;;;;;7.10;100.00;97752.80;79446;1297;3013382;-70
2024/01/19 02:01:40;;;;;;;5.50;3.60;;;;;;;7.05;100.00;97753.39;79353;1297;3012072;-66
2024/01/19 02:04:09;;;;;;;6.40;3.90;;;;;;;7.08;100.00;97746.55;78283;1300;3052751;-77
2024/01/19 02:06:35;;;;;;;5.40;4.00;;;;;;;6.98;100.00;97745.56;79480;1300;3013252;-70
2024/01/19 02:09:02;;;;;;;4.70;3.30;;;;;;;6.95;100.00;97752.34;79509;1298;3011452;-73
2024/01/19 02:11:30;;;;;;;4.30;3.10;;;;;;;7.25;100.00;97747.90;78217;1301;3056044;-65
2024/01/19 02:13:57;;;;;;;5.70;4.20;;;;;;;7.51;100.00;97737.63;79427;1298;3012880;-71
2024/01/19 02:16:23;;;;;;;7.40;4.70;;;;;;;7.43;100.00;97734.91;79302;1299;3011503;-69
2024/01/19 02:18:52;;;;;;;6.00;4.20;;;;;;;7.26;100.00;97743.98;78257;1298;3028009;-68
2024/01/19 02:21:19;;;;;;;6.00;3.70;;;;;;;7.11;100.00;97745.08;79586;1301;3015192;-69
2024/01/19 02:24:00;;;;;;;5.00;3.90;;;;;;;7.43;100.00;97744.33;79302;1296;3011453;-64
2024/01/19 02:26:32;;;;;;;5.60;4.10;;;;;;;7.44;100.00;97736.95;78010;1299;3055520;-67
2024/01/19 02:28:59;;;;;;;4.80;3.70;;;;;;;7.41;100.00;97726.31;79437;1298;3011598;-69
2024/01/19 02:31:27;;;;;;;6.10;4.40;;;;;;;7.24;100.00;97736.48;78072;1299;3027846;-70
2024/01/19 02:33:54;;;;;;;5.90;4.60;;;;;;;6.81;100.00;97744.88;79534;1300;3019402;-68
2024/01/19 02:36:21;;;;;;;5.80;4.10;;;;;;;7.23;100.00;97741.05;79505;1300;3011815;-69
2024/01/19 02:38:49;;;;;;;7.60;4.60;;;;;;;7.11;100.00;97737.92;78315;1298;3028396;-72
2024/01/19 02:41:15;;;;;;;4.60;3.70;;;;;;;6.95;100.00;97746.43;79501;1299;3011722;-68
2024/01/19 02:43:42;;;;;;;7.80;4.30;;;;;;;6.95;100.00;97743.30;79418;1296;3013885;-74
2024/01/19 02:46:13;;;;;;;7.30;4.30;;;;;;;6.81;100.00;97745.16;78251;1302;3026299;-66
2024/01/19 02:48:39;;;;;;;6.10;4.40;;;;;;;7.06;100.00;97746.34;79541;1298;3011861;-67
2024/01/19 02:51:08;;;;;;;5.30;4.20;;;;;;;7.25;100.00;97738.48;79040;1301;3011854;-73
2024/01/19 02:53:35;;;;;;;6.40;4.90;;;;;;;7.06;100.00;97738.39;79342;1296;3013197;-72
2024/01/19 02:56:01;;;;;;;5.60;4.70;;;;;;;6.97;100.00;97745.08;79384;1299;3013497;-67
2024/01/19 02:58:29;;;;;;;7.30;5.00;;;;;;;6.92;100.00;97741.63;78272;1301;3026020;-70
2024/01/19 03:00:56;;;;;;;4.20;3.60;;;;;;;7.00;100.00;97747.65;79412;1299;3013588;-70
2024/01/19 03:03:23;;;;;;;6.30;5.30;;;;;;;7.09;100.00;97743.84;79492;1300;3013263;-73
2024/01/19 03:05:51;;;;;;;8.40;4.40;;;;;;;7.10;100.00;97744.66;78447;1300;3028928;-64
2024/01/19 03:08:18;;;;;;;6.40;5.00;;;;;;;7.11;100.00;97744.05;79517;1300;3013585;-69
2024/01/19 03:10:44;;;;;;;5.70;4.80;;;;;;;6.94;100.00;97754.70;79413;1300;3011985;-70
2024/01/19 03:13:12;;;;;;;4.40;3.60;;;;;;;7.42;100.00;97745.77;78087;1297;3028275;-67
2024/01/19 03:15:39;;;;;;;6.00;4.80;;;;;;;7.50;100.00;97736.43;79291;1296;3018809;-66
2024/01/19 03:18:05;;;;;;;6.00;4.60;;;;;;;7.44;100.00;97742.67;79391;1299;3011760;-71
2024/01/19 03:20:33;;;;;;;6.60;5.10;;;;;;;7.11;100.00;97755.00;78366;1301;3028810;-68
2024/01/19 03:23:00;;;;;;;7.80;4.90;;;;;;;7.04;100.00;97757.09;79263;1299;3013146;-74
2024/01/19 03:25:26;;;;;;;6.50;4.50;;;;;;;7.18;100.00;97760.94;79319;1296;3011352;-66
2024/01/19 03:27:55;;;;;;;6.50;4.90;;;;;;;7.51;100.00;97750.47;78120;1299;3028638;-68
2024/01/19 03:30:22;;;;;;;6.00;4.80;;;;;;;7.36;100.00;97753.66;79450;1297;3012718;-70
2024/01/19 03:32:49;;;;;;;7.10;5.20;;;;;;;7.17;100.00;97759.98;79590;1300;3012183;-70
2024/01/19 03:35:17;;;;;;;6.40;4.30;;;;;;;6.94;100.00;97769.68;78502;1301;3053565;-69
2024/01/19 03:37:45;;;;;;;6.20;4.70;;;;;;;7.27;100.00;97763.95;79464;1297;3013688;-71
2024/01/19 03:40:11;;;;;;;6.10;4.60;;;;;;;7.45;100.00;97762.13;79578;1301;3011560;-72
2024/01/19 03:42:39;;;;;;;6.50;4.50;;;;;;;7.28;100.00;97757.83;78365;1300;3056536;-65
2024/01/19 03:45:07;;;;;;;7.60;5.70;;;;;;;7.15;100.00;97761.89;79457;1297;3012924;-67
2024/01/19 03:47:34;;;;;;;7.40;4.40;;;;;;;7.06;100.00;97765.17;79457;1299;3012727;-65
2024/01/19 03:50:02;;;;;;;8.40;5.00;;;;;;;7.27;100.00;97771.42;78310;1301;3054645;-68
2024/01/19 03:52:29;;;;;;;5.90;4.80;;;;;;;7.32;100.00;97769.11;79495;1300;3013496;-70
2024/01/19 03:54:55;;;;;;;7.90;5.60;;;;;;;7.32;100.00;97772.98;80754;1296;3011696;-66
2024/01/19 03:57:23;;;;;;;8.60;5.60;;;;;;;7.03;100.00;97778.75;80628;1298;3055491;-70
2024/01/19 03:59:50;;;;;;;12.70;6.90;;;;;;;6.86;100.00;97783.45;81881;1297;3012690;-74
2024/01/19 04:02:16;;;;;;;12.40;6.20;;;;;;;7.07;100.00;97781.80;81865;1298;3011216;-72
2024/01/19 04:04:44;;;;;;;16.50;7.20;;;;;;;7.29;100.00;97785.07;80621;1297;3026201;-72
2024/01/19 04:07:12;;;;;;;15.00;8.10;;;;;;;7.34;100.00;97768.13;80000;1295;3018634;-65
2024/01/19 04:09:40;;;;;;;9.50;6.00;;;;;;;7.15;100.00;97777.38;79471;1295;3013939;-68
2024/01/19 04:12:15;;;;;;;9.30;5.70;;;;;;;6.82;100.00;97788.98;78266;1300;3056595;-65
2024/01/19 04:14:44;;;;;;;8.30;4.80;;;;;;;7.30;100.00;97782.02;79049;1296;3012965;-66
2024/01/19 04:17:11;;;;;;;7.10;5.10;;;;;;;7.26;100.00;97778.83;79504;1295;3013752;-69
2024/01/19 04:19:37;;;;;;;11.10;7.10;;;;;;;7.07;100.00;97791.35;79565;1301;3011659;-69
2024/01/19 04:22:05;;;;;;;14.90;8.50;;;;;;;7.03;100.00;97800.16;78291;1300;3026236;-71
2024/01/19 04:24:32;;;;;;;18.80;10.30;;;;;;;6.82;100.00;97801.00;79395;1301;3013810;-73
2024/01/19 04:26:59;;;;;;;14.60;7.90;;;;;;;7.22;100.00;97801.59;79463;1301;3012925;-66
2024/01/19 04:29:27;;;;;;;18.80;10.40;;;;;;;7.34;100.00;97789.77;78201;1300;3028601;-67
2024/01/19 04:31:53;;;;;;;20.60;10.80;;;;;;;7.22;100.00;97784.15;79519;1300;3013104;-62
2024/01/19 04:34:20;;;;;;;32.10;15.10;;;;;;;6.99;100.00;97787.09;79483;1294;3013110;-70
2024/01/19 04:36:48;;;;;;;35.20;13.50;;;;;;;6.86;100.00;97793.55;78232;1300;3025849;-68
2024/01/19 04:39:16;;;;;;;73.30;25.00;;;;;;;7.21;100.00;97785.97;79363;1295;3013272;-71
2024/01/19 04:41:42;;;;;;;72.80;24.70;;;;;;;7.35;100.00;97772.08;79291;1301;3011827;-64
2024/01/19 04:44:10;;;;;;;95.10;31.10;;;;;;;7.28;100.00;97765.66;78095;1300;3056306;-68
2024/01/19 04:46:37;;;;;;;135.00;40.20;;;;;;;7.09;100.00;97770.14;79548;1295;3013768;-68
2024/01/19 04:49:03;;;;;;;127.60;36.50;;;;;;;6.92;100.00;97782.70;79526;1295;3013010;-65
2024/01/19 04:51:33;;;;;;;129.70;37.00;;;;;;;7.21;100.00;97785.27;78277;1300;3052460;-69
2024/01/19 04:54:00;;;;;;;150.80;40.40;;;;;;;7.37;100.00;97778.37;79444;1295;3018854;-72
2024/01/19 04:56:26;;;;;;;109.40;32.60;;;;;;;7.04;100.00;97784.25;79557;1297;3011943;-68
2024/01/19 04:58:54;;;;;;;92.70;29.20;;;;;;;6.94;100.00;97794.54;78359;1295;3026486;-66
2024/01/19 05:01:21;;;;;;;41.00;16.70;;;;;;;6.69;100.00;97792.50;79507;1295;3013686;-67
2024/01/19 05:03:47;;;;;;;38.90;17.50;;;;;;;7.05;100.00;97790.31;79446;1295;3013866;-64
2024/01/19 05:06:15;;;;;;;33.80;15.80;;;;;;;7.28;100.00;97784.05;78398;1301;3026094;-73
2024/01/19 05:08:42;;;;;;;43.80;19.40;;;;;;;7.03;100.00;97789.38;79479;1295;3013618;-72
2024/01/19 05:11:13;;;;;;;45.40;18.40;;;;;;;6.89;100.00;97810.59;79453;1295;3011822;-74
2024/01/19 05:13:41;;;;;;;34.70;15.00;;;;;;;6.77;100.00;97825.02;78175;1295;3055290;-70
2024/01/19 05:16:08;;;;;;;28.60;13.40;;;;;;;7.11;100.00;97830.44;79404;1295;3013262;-71
2024/01/19 05:18:35;;;;;;;19.00;10.50;;;;;;;7.14;100.00;97830.89;79425;1296;3011684;-71
2024/01/19 05:21:03;;;;;;;28.60;14.90;;;;;;;7.04;100.00;97830.02;78258;1301;3028474;-69
2024/01/19 05:23:29;;;;;;;37.40;18.30;;;;;;;7.00;100.00;97828.48;79487;1301;3018853;-72
2024/01/19 05:25:56;;;;;;;36.40;17.80;;;;;;;6.72;100.00;97835.83;79391;1295;3013513;-72
2024/01/19 05:28:24;;;;;;;40.60;18.40;;;;;;;7.00;100.00;97843.61;78227;1295;3026302;-71
2024/01/19 05:30:50;;;;;;;30.70;14.50;;;;;;;7.09;100.00;97847.30;79507;1296;3013557;-74
2024/01/19 05:33:17;;;;;;;29.50;14.50;;;;;;;7.05;100.00;97851.18;79402;1296;3011547;-73
2024/01/19 05:35:44;;;;;;;28.00;13.20;;;;;;;6.81;100.00;97850.50;78293;1300;3026357;-72
2024/01/19 05:38:11;;;;;;;13.80;7.00;;;;;;;6.68;100.00;97851.76;79497;1295;3012996;-71
2024/01/19 05:40:37;;;;;;;9.40;5.80;;;;;;;6.97;100.00;97849.17;79415;1301;3011740;-75
2024/01/19 05:43:05;;;;;;;9.60;5.50;;;;;;;7.16;100.00;97857.94;78242;1295;3026246;-69
2024/01/19 05:45:32;;;;;;;12.20;5.80;;;;;;;7.22;100.00;97854.52;79464;1296;3013621;-67
2024/01/19 05:47:58;;;;;;;11.00;6.50;;;;;;;6.85;100.00;97859.77;79419;1300;3013123;-72
2024/01/19 05:50:27;;;;;;;11.40;6.90;;;;;;;6.71;100.00;97869.30;78301;1296;3028035;-67
2024/01/19 05:52:57;;;;;;;11.50;6.90;;;;;;;6.87;100.00;97863.27;79498;1299;3012898;-68
2024/01/19 05:55:25;;;;;;;13.30;8.00;;;;;;;7.20;100.00;97858.53;78912;1295;3012547;-74
2024/01/19 05:57:52;;;;;;;13.60;9.50;;;;;;;7.00;100.00;97864.98;79452;1295;3013422;-68
2024/01/19 06:00:18;;;;;;;15.70;10.70;;;;;;;6.88;100.00;97874.49;79465;1295;3013253;-68
2024/01/19 06:02:47;;;;;;;20.20;10.80;;;;;;;6.80;100.00;97884.15;78335;1295;3053586;-69
2024/01/19 06:05:14;;;;;;;21.60;12.40;;;;;;;6.78;100.00;97893.53;79405;1295;3012791;-72
2024/01/19 06:07:40;;;;;;;30.90;14.90;;;;;;;6.98;100.00;97892.79;79492;1295;3012597;-63
2024/01/19 06:10:09;;;;;;;36.30;18.00;;;;;;;7.12;100.00;97889.19;78248;1303;3028912;-73
2024/01/19 06:12:35;;;;;;;34.80;17.30;;;;;;;6.94;100.00;97901.61;79583;1296;3013952;-71
2024/01/19 06:15:02;;;;;;;34.20;17.30;;;;;;;6.85;100.00;97911.67;79671;1295;3013291;-75
2024/01/19 06:17:30;;;;;;;34.20;15.60;;;;;;;6.80;100.00;97905.17;78241;1295;3053141;-69
2024/01/19 06:19:57;;;;;;;32.30;15.00;;;;;;;7.03;100.00;97908.11;79429;1295;3013556;-68
2024/01/19 06:22:24;;;;;;;35.30;15.80;;;;;;;7.21;100.00;97898.50;79487;1295;3013942;-69
2024/01/19 06:24:51;;;;;;;26.60;13.60;;;;;;;7.10;100.00;97903.27;78290;1300;3026298;-73
2024/01/19 06:27:21;;;;;;;27.60;12.50;;;;;;;6.81;100.00;97910.39;79489;1295;3012950;-72
2024/01/19 06:29:50;;;;;;;15.70;9.60;;;;;;;6.74;100.00;97906.13;78899;1301;3011232;-69
2024/01/19 06:32:17;;;;;;;11.10;7.50;;;;;;;6.63;100.00;97918.19;79606;1295;3014704;-71
2024/01/19 06:34:44;;;;;;;11.50;7.50;;;;;;;7.12;100.00;97908.18;79506;1301;3011657;-67
2024/01/19 06:37:12;;;;;;;10.10;7.60;;;;;;;7.36;100.00;97903.16;78435;1295;3050212;-70
2024/01/19 06:39:38;;;;;;;11.30;7.50;;;;;;;7.01;100.00;97913.29;79553;1295;3013634;-66
2024/01/19 06:42:05;;;;;;;12.80;8.90;;;;;;;6.95;100.00;97908.70;79531;1295;3011574;-72
2024/01/19 06:44:34;;;;;;;11.90;6.50;;;;;;;6.67;100.00;97910.60;78304;1301;3026815;-67
2024/01/19 06:47:00;;;;;;;12.30;7.50;;;;;;;6.94;100.00;97920.41;79412;1295;3013035;-65
2024/01/19 06:49:27;;;;;;;10.40;7.30;;;;;;;7.05;100.00;97915.63;79460;1295;3011845;-68
2024/01/19 06:51:55;;;;;;;12.60;8.10;;;;;;;6.93;100.00;97925.04;78548;1299;3052146;-70
2024/01/19 06:54:22;;;;;;;13.70;8.40;;;;;;;6.72;100.00;97938.99;79440;1300;3013488;-69
2024/01/19 06:56:48;;;;;;;15.60;8.10;;;;;;;6.70;100.00;97953.23;79515;1300;3013671;-71
2024/01/19 06:59:16;;;;;;;14.30;7.60;;;;;;;6.75;100.00;97952.55;78215;1295;3027276;-71
2024/01/19 07:01:43;;;;;;;12.70;8.60;;;;;;;7.09;100.00;97942.15;79478;1295;3013124;-71
2024/01/19 07:04:09;;;;;;;13.20;8.50;;;;;;;6.99;100.00;97944.95;79660;1295;3013997;-67
2024/01/19 07:06:37;;;;;;;17.00;9.50;;;;;;;6.89;100.00;97953.64;78250;1301;3028655;-69
2024/01/19 07:09:04;;;;;;;13.40;7.60;;;;;;;6.70;100.00;97957.09;79745;1296;3013241;-65
2024/01/19 07:11:31;;;;;;;11.50;7.60;;;;;;;6.74;100.00;97955.04;79611;1296;3014134;-72
2024/01/19 07:13:58;;;;;;;11.10;7.50;;;;;;;7.16;100.00;97949.73;78229;1296;3027531;-70
2024/01/19 07:16:25;;;;;;;10.20;7.20;;;;;;;7.28;100.00;97944.52;79498;1297;3013601;-74
2024/01/19 07:18:51;;;;;;;17.50;8.10;;;;;;;7.21;100.00;97947.61;79408;1298;3011684;-72
2024/01/19 07:21:19;;;;;;;14.30;8.50;;;;;;;6.96;100.00;97954.56;78309;1301;3026403;-68
2024/01/19 07:23:46;;;;;;;18.40;9.50;;;;;;;6.72;100.00;97968.73;79427;1298;3012885;-73
2024/01/19 07:26:12;;;;;;;26.90;10.60;;;;;;;6.93;100.00;97968.14;79432;1301;3012039;-71
2024/01/19 07:28:40;;;;;;;27.50;11.30;;;;;;;7.09;100.00;97947.39;78175;1299;3028942;-70
2024/01/19 07:31:07;;;;;;;22.60;10.80;;;;;;;7.12;100.00;97946.95;79395;1300;3013430;-73
2024/01/19 07:33:33;;;;;;;19.40;10.30;;;;;;;6.87;100.00;97958.52;79467;1298;3011489;-71
2024/01/19 07:36:01;;;;;;;13.10;8.20;;;;;;;6.82;100.00;97967.02;78240;1300;3024974;-67
2024/01/19 07:38:28;;;;;;;17.10;9.00;;;;;;;7.07;100.00;97960.25;79260;1298;3013795;-71
2024/01/19 07:40:55;;;;;;;16.60;9.70;;;;;;;7.15;100.00;97960.05;79418;1298;3012358;-71
2024/01/19 07:43:22;;;;;;;17.70;10.30;;;;;;;7.14;100.00;97960.98;78423;1298;3055278;-66
2024/01/19 07:45:49;;;;;;;13.20;9.30;;;;;;;7.00;100.00;97964.76;79416;1300;3018819;-69
2024/01/19 07:48:15;;;;;;;12.20;7.20;;;;;;;6.96;100.00;97967.95;79459;1298;3011693;-64
2024/01/19 07:50:43;;;;;;;12.40;7.70;;;;;;;7.13;100.00;97973.61;78362;1298;3028455;-68
2024/01/19 07:53:10;;;;;;;13.50;8.40;;;;;;;7.26;100.00;97964.32;79510;1298;3013485;-68
2024/01/19 07:55:36;;;;;;;12.70;7.90;;;;;;;7.35;100.00;97961.38;79497;1295;3011437;-65
2024/01/19 07:58:04;;;;;;;15.90;10.00;;;;;;;7.17;100.00;97969.13;78322;1295;3025306;-69
2024/01/19 08:00:31;;;;;;;31.00;13.70;;;;;;;7.05;100.00;97965.41;79444;1295;3018588;-67
2024/01/19 08:02:57;;;;;;;27.20;11.80;;;;;;;6.93;100.00;97970.95;79702;1295;3011363;-67
2024/01/19 08:05:25;;;;;;;21.80;10.60;;;;;;;7.39;100.00;97959.38;78245;1295;3029309;-67
2024/01/19 08:07:52;;;;;;;23.90;11.10;;;;;;;7.77;100.00;97956.15;79626;1295;3013955;-65
2024/01/19 08:10:19;;;;;;;18.00;11.10;;;;;;;7.68;100.00;97962.89;79486;1301;3011394;-73
2024/01/19 08:12:47;;;;;;;22.90;10.40;;;;;;;7.47;100.00;97966.48;78337;1301;3026025;-71
2024/01/19 08:15:14;;;;;;;13.70;8.40;;;;;;;7.19;100.00;97967.97;79663;1295;3016038;-65
2024/01/19 08:17:40;;;;;;;10.90;6.50;;;;;;;7.17;100.00;97963.71;80030;1295;3011307;-72
2024/01/19 08:20:11;;;;;;;12.40;7.70;;;;;;;7.49;100.00;97969.80;78344;1300;3026469;-69
2024/01/19 08:22:37;;;;;;;10.70;6.10;;;;;;;7.80;100.00;97964.41;79600;1294;3011911;-67
2024/01/19 08:25:09;;;;;;;11.30;7.20;;;;;;;7.75;100.00;97952.61;79025;1296;3011496;-66
2024/01/19 08:27:42;;;;;;;12.10;7.40;;;;;;;7.69;100.00;97946.41;79514;1295;3012853;-69
2024/01/19 08:30:11;;;;;;;10.40;6.80;;;;;;;7.30;100.00;97969.42;78637;1300;3056477;-69
2024/01/19 08:32:38;;;;;;;9.90;5.60;;;;;;;7.24;100.00;97982.90;79687;1294;3013436;-78
2024/01/19 08:35:08;;;;;;;16.80;8.50;;;;;;;7.58;100.00;97995.98;79519;1295;3011578;-71
2024/01/19 08:37:37;;;;;;;64.30;24.40;;;;;;;7.76;100.00;97993.66;78481;1301;3052703;-74
2024/01/19 08:40:13;;;;;;;61.30;25.50;;;;;;;7.75;100.00;97991.33;79810;1295;3012940;-71
2024/01/19 08:42:41;;;;;;;65.10;26.30;;;;;;;7.67;100.00;97997.99;78256;1300;3052810;-76
2024/01/19 08:45:08;;;;;;;47.30;21.40;;;;;;;7.50;100.00;97992.23;79584;1295;3013601;-70
2024/01/19 08:47:35;;;;;;;34.20;15.50;;;;;;;7.47;100.00;97996.09;79898;1295;3013846;-70
2024/01/19 08:50:07;;;;;;;29.00;14.90;;;;;;;7.82;100.00;98002.45;78390;1295;3026586;-72
2024/01/19 08:52:35;;;;;;;17.60;10.50;;;;;;;7.83;100.00;98007.78;79582;1295;3011760;-67
2024/01/19 08:55:03;;;;;;;15.90;9.30;;;;;;;7.79;100.00;98009.70;78241;1295;3052171;-70
2024/01/19 08:57:33;;;;;;;17.10;9.00;;;;;;;7.64;100.00;98009.86;79395;1298;3013709;-67
2024/01/19 09:00:04;;;;;;;14.90;8.50;;;;;;;7.46;100.00;98012.21;78215;1295;3056538;-66
2024/01/19 09:02:31;;;;;;;9.40;5.90;;;;;;;7.35;100.00;98016.81;79388;1295;3013812;-70
2024/01/19 09:04:59;;;;;;;9.70;6.20;;;;;;;7.54;100.00;98012.68;78188;1295;3026456;-67
2024/01/19 09:07:26;;;;;;;7.90;5.60;;;;;;;7.72;100.00;98012.80;79598;1295;3012634;-68
2024/01/19 09:09:52;;;;;;;14.20;7.90;;;;;;;7.56;100.00;98010.59;79518;1301;3011688;-71
2024/01/19 09:12:20;;;;;;;11.80;7.70;;;;;;;7.43;100.00;98013.95;78218;1295;3025947;-68
2024/01/19 09:14:47;;;;;;;14.10;8.40;;;;;;;7.29;100.00;98012.71;79495;1295;3013559;-67
2024/01/19 09:17:14;;;;;;;14.50;7.70;;;;;;;7.30;100.00;98007.56;79648;1295;3011703;-69
2024/01/19 09:19:42;;;;;;;14.30;7.90;;;;;;;7.63;100.00;98006.81;78266;1301;3028556;-66
2024/01/19 09:22:09;;;;;;;15.00;9.40;;;;;;;7.97;100.00;97995.48;79505;1300;3015493;-70
2024/01/19 09:24:35;;;;;;;17.80;10.30;;;;;;;7.91;100.00;98000.98;79643;1300;3011754;-68
2024/01/19 09:27:03;;;;;;;23.30;11.40;;;;;;;7.80;100.00;98002.81;78627;1299;3026023;-67
2024/01/19 09:29:30;;;;;;;21.50;10.40;;;;;;;7.46;100.00;98004.34;79682;1295;3013674;-69
2024/01/19 09:31:57;;;;;;;14.80;7.80;;;;;;;7.23;100.00;98004.21;79470;1295;3011802;-67
2024/01/19 09:34:25;;;;;;;17.90;9.80;;;;;;;7.61;100.00;98001.87;78585;1295;3052584;-68
2024/01/19 09:36:51;;;;;;;13.20;8.50;;;;;;;8.01;100.00;97996.20;79389;1301;3018751;-65
2024/01/19 09:39:20;;;;;;;17.60;9.70;;;;;;;7.86;100.00;97998.70;79504;1301;3011659;-68
2024/01/19 09:41:52;;;;;;;13.40;8.20;;;;;;;7.65;100.00;98004.42;78188;1301;3068031;-65
2024/01/19 09:44:20;;;;;;;18.70;9.90;;;;;;;7.60;100.00;98000.75;79410;1301;3011821;-66
2024/01/19 09:46:54;;;;;;;16.90;9.30;;;;;;;7.58;100.00;97999.17;78268;1295;3055183;-64
2024/01/19 09:49:44;;;;;;;14.70;9.00;;;;;;;7.81;100.00;98006.38;79621;1301;3011629;-68
2024/01/19 09:52:35;;;;;;;16.40;9.50;;;;;;;7.98;100.00;98009.66;78244;1300;3052438;-70
2024/01/19 09:55:04;;;;;;;18.60;10.10;;;;;;;7.79;100.00;98007.55;78300;1296;3049485;-68
2024/01/19 09:57:30;;;;;;;18.00;11.00;;;;;;;7.67;100.00;98010.57;79608;1296;3014742;-69
2024/01/19 09:59:57;;;;;;;14.00;8.60;;;;;;;7.44;100.00;98013.02;79465;1302;3011632;-63
2024/01/19 10:02:26;;;;;;;9.30;5.50;;;;;;;7.30;100.00;98012.44;78171;1300;3050323;-70
2024/01/19 10:04:53;;;;;;;10.00;7.20;;;;;;;7.69;100.00;98006.20;79528;1295;3013282;-67
2024/01/19 10:07:20;;;;;;;13.30;7.40;;;;;;;8.16;100.00;98005.92;79670;1295;3012312;-67
2024/01/19 10:09:51;;;;;;;12.00;7.50;;;;;;;8.13;100.00;98008.98;78143;1295;3048699;-69
2024/01/19 10:12:22;;;;;;;14.10;8.20;;;;;;;8.00;100.00;98010.40;79529;1298;3013127;-66
2024/01/19 10:14:50;;;;;;;18.20;8.60;;;;;;;7.71;100.00;98008.14;78253;1298;3052284;-64
2024/01/19 10:17:16;;;;;;;8.90;5.40;;;;;;;7.64;100.00;98014.91;79568;1295;3012907;-67
2024/01/19 10:19:43;;;;;;;13.10;7.60;;;;;;;8.09;100.00;98015.14;79162;1295;3013170;-66
2024/01/19 10:22:25;;;;;;;12.20;5.70;;;;;;;8.32;99.94;98014.33;78290;1301;3026298;-67
2024/01/19 10:25:08;;;;;;;10.60;6.10;;;;;;;8.28;99.86;98017.11;78267;1295;3052634;-72
2024/01/19 10:27:46;;;;;;;12.90;7.00;;;;;;;7.90;100.00;98015.14;80693;1295;3048371;-69
2024/01/19 10:30:16;;;;;;;8.40;5.70;;;;;;;7.80;100.00;98017.98;79636;1299;3051646;-66
2024/01/19 10:32:44;;;;;;;8.60;5.50;;;;;;;7.71;100.00;98016.14;80346;1300;3013081;-68
2024/01/19 10:35:15;;;;;;;9.20;5.10;;;;;;;8.10;100.00;98022.38;81451;1295;3011412;-67
2024/01/19 10:37:42;;;;;;;9.80;5.80;;;;;;;8.43;99.74;98023.66;81973;1295;3011311;-65
2024/01/19 10:40:24;;;;;;;10.50;7.00;;;;;;;8.38;99.66;98021.10;81240;1295;3013014;-65
2024/01/19 10:42:59;;;;;;;12.00;7.70;;;;;;;8.26;99.74;98026.36;78172;1300;3049113;-65
2024/01/19 10:45:31;;;;;;;35.70;13.70;;;;;;;8.05;100.00;98027.13;79089;1295;3012892;-67
2024/01/19 10:47:59;;;;;;;43.10;14.20;;;;;;;7.92;100.00;98023.75;79699;1295;3013753;-68
2024/01/19 10:50:28;;;;;;;39.70;14.60;;;;;;;8.27;99.99;98025.84;78365;1300;3026894;-64
2024/01/19 10:52:59;;;;;;;38.50;15.00;;;;;;;8.68;98.85;98023.27;79552;1300;3012910;-64
2024/01/19 10:55:28;;;;;;;30.10;12.50;;;;;;;8.66;97.73;98027.89;78219;1295;3068056;-65
2024/01/19 10:58:13;;;;;;;27.70;12.30;;;;;;;8.46;99.00;98027.32;79378;1295;3014306;-62
2024/01/19 11:00:42;;;;;;;28.50;13.10;;;;;;;8.11;99.61;98032.80;78392;1295;3048845;-65
2024/01/19 11:03:08;;;;;;;13.00;7.30;;;;;;;8.07;100.00;98029.95;79500;1307;3013478;-67
2024/01/19 11:05:35;;;;;;;8.50;4.90;;;;;;;8.10;100.00;98036.04;79583;1295;3011621;-69
2024/01/19 11:08:03;;;;;;;9.30;5.30;;;;;;;8.60;98.86;98032.88;78534;1301;3024945;-69
2024/01/19 11:10:31;;;;;;;6.90;5.40;;;;;;;8.40;98.38;98041.67;79515;1296;3018512;-63
2024/01/19 11:12:59;;;;;;;9.20;6.30;;;;;;;8.63;97.74;98037.04;79532;1295;3012730;-64
2024/01/19 11:15:29;;;;;;;10.00;6.00;;;;;;;8.52;97.37;98037.67;78211;1295;3048020;-69